createdAt,value
2022-11-06T00:01:20.425Z,97322.19
2022-11-06T00:05:33.375Z,97352.28
2022-11-06T00:09:37.908Z,97348.22
2022-11-06T00:13:38.125Z,97343.38
2022-11-06T00:17:38.970Z,97333.69
2022-11-06T00:21:39.387Z,97337.84
2022-11-06T00:25:44.525Z,97343.22
2022-11-06T00:29:45.293Z,97333.69
2022-11-06T00:33:46.405Z,97335.94
2022-11-06T00:37:46.735Z,97343.81
2022-11-06T00:41:49.542Z,97352.84
2022-11-06T00:45:49.582Z,97353.03
2022-11-06T00:49:49.708Z,97351.94
2022-11-06T00:53:50.502Z,97347.13
2022-11-06T00:57:53.420Z,97352.31
2022-11-06T01:01:53.760Z,97326.41
2022-11-06T01:05:54.028Z,97341.41
2022-11-06T01:09:54.266Z,97349.97
2022-11-06T01:13:59.827Z,97349.19
2022-11-06T01:18:00.008Z,97353.44
2022-11-06T01:22:00.170Z,97357.28
2022-11-06T01:26:01.764Z,97358.88
2022-11-06T01:30:04.569Z,97356.28
2022-11-06T01:34:06.210Z,97349.13
2022-11-06T01:38:06.301Z,97353.84
2022-11-06T01:42:06.819Z,97357.16
2022-11-06T01:46:09.580Z,97352.22
2022-11-06T01:50:14.578Z,97355.75
2022-11-06T01:54:15.928Z,97359.00
2022-11-06T01:58:22.579Z,97365.59
2022-11-06T02:02:25.966Z,97340.06
2022-11-06T02:06:26.990Z,97355.78
2022-11-06T02:10:27.330Z,97363.22
2022-11-06T02:14:43.219Z,97335.00
2022-11-06T02:19:14.787Z,97360.88
2022-11-06T02:23:53.563Z,97349.69
2022-11-06T02:28:05.084Z,97352.34
2022-11-06T02:32:14.245Z,97353.63
2022-11-06T02:36:20.171Z,97357.56
2022-11-06T02:40:24.068Z,97349.13
2022-11-06T02:44:32.902Z,97321.38
2022-11-06T02:48:41.322Z,97331.16
2022-11-06T02:52:48.163Z,97345.94
2022-11-06T02:56:51.071Z,97342.59
2022-11-06T03:01:06.118Z,97327.84
2022-11-06T03:05:14.103Z,97291.78
2022-11-06T03:09:20.959Z,97332.34
2022-11-06T03:13:27.718Z,97328.56
2022-11-06T03:17:44.778Z,97324.69
2022-11-06T03:22:00.044Z,97331.16
2022-11-06T03:26:13.186Z,97323.97
2022-11-06T03:30:17.103Z,97318.28
2022-11-06T03:34:31.812Z,97322.44
2022-11-06T03:38:42.029Z,97325.75
2022-11-06T03:42:44.677Z,97311.84
2022-11-06T03:46:53.018Z,97319.88
2022-11-06T03:51:05.423Z,97310.75
2022-11-06T03:55:13.988Z,97304.72
2022-11-06T03:59:23.435Z,97300.00
2022-11-06T04:03:30.946Z,97304.66
2022-11-06T04:07:40.579Z,97303.44
2022-11-06T04:11:56.460Z,97309.56
2022-11-06T04:15:58.027Z,97304.72
2022-11-06T04:20:03.763Z,97299.88
2022-11-06T04:24:36.506Z,97303.25
2022-11-06T04:28:48.394Z,97297.19
2022-11-06T04:33:13.692Z,97291.31
2022-11-06T04:37:23.832Z,97282.56
2022-11-06T04:41:37.657Z,97269.66
2022-11-06T04:45:43.323Z,97285.88
2022-11-06T04:49:47.328Z,97294.78
2022-11-06T04:53:48.291Z,97289.19
2022-11-06T04:57:51.135Z,97279.16
2022-11-06T05:01:51.556Z,97271.72
2022-11-06T05:05:51.700Z,97274.78
2022-11-06T05:09:51.985Z,97277.88
2022-11-06T05:13:54.831Z,97258.59
2022-11-06T05:17:54.972Z,97256.28
2022-11-06T05:22:07.589Z,97273.69
2022-11-06T05:26:08.752Z,97271.00
2022-11-06T05:30:13.724Z,97273.00
2022-11-06T05:34:14.008Z,97273.88
2022-11-06T05:38:14.365Z,97271.13
2022-11-06T05:42:14.709Z,97261.41
2022-11-06T05:46:42.868Z,97263.97
2022-11-06T05:50:37.623Z,97266.06
2022-11-06T05:54:48.242Z,97267.31
2022-11-06T05:58:48.308Z,97274.59
2022-11-06T06:02:51.278Z,97263.97
2022-11-06T06:06:51.397Z,97275.78
2022-11-06T06:10:51.561Z,97261.91
2022-11-06T06:14:51.746Z,97255.66
2022-11-06T06:18:54.994Z,97232.09
2022-11-06T06:22:58.137Z,97258.66
2022-11-06T06:26:58.303Z,97227.25
2022-11-06T06:31:01.464Z,97265.47
2022-11-06T06:35:04.632Z,97265.16
2022-11-06T06:39:04.744Z,97255.78
2022-11-06T06:43:04.889Z,97264.66
2022-11-06T06:47:04.938Z,97257.19
2022-11-06T06:51:08.192Z,97262.56
2022-11-06T06:55:09.744Z,97278.53
2022-11-06T06:59:10.296Z,97269.19
2022-11-06T07:03:10.476Z,97273.00
2022-11-06T07:07:13.412Z,97273.19
2022-11-06T07:11:14.339Z,97273.66
2022-11-06T07:15:15.319Z,97272.06
2022-11-06T07:19:15.558Z,97280.00
2022-11-06T07:23:18.190Z,97301.66
2022-11-06T07:27:18.271Z,97298.84
2022-11-06T07:31:18.398Z,97311.09
2022-11-06T07:35:18.675Z,97321.28
2022-11-06T07:39:21.465Z,97299.56
2022-11-06T07:43:21.531Z,97333.75
2022-11-06T07:47:21.665Z,97334.94
2022-11-06T07:51:21.803Z,97316.91
2022-11-06T07:55:24.694Z,97320.69
2022-11-06T07:59:24.826Z,97297.91
2022-11-06T08:03:26.785Z,97285.22
2022-11-06T08:07:26.875Z,97276.22
2022-11-06T08:11:29.564Z,97274.13
2022-11-06T08:15:30.724Z,97270.91
2022-11-06T08:19:30.877Z,97284.94
2022-11-06T08:23:31.529Z,97268.94
2022-11-06T08:27:34.273Z,97274.75
2022-11-06T08:31:34.362Z,97261.75
2022-11-06T08:35:35.108Z,97249.59
2022-11-06T08:39:35.334Z,97210.13
2022-11-06T08:43:39.164Z,97245.38
2022-11-06T08:47:39.319Z,97241.28
2022-11-06T08:51:39.406Z,97226.25
2022-11-06T08:55:42.013Z,97193.09
2022-11-06T08:59:47.741Z,97214.03
2022-11-06T09:03:47.953Z,97197.69
2022-11-06T09:07:48.159Z,97181.53
2022-11-06T09:11:48.397Z,97167.88
2022-11-06T09:15:51.067Z,97189.03
2022-11-06T09:19:51.211Z,97181.13
2022-11-06T09:23:51.473Z,97187.09
2022-11-06T09:27:59.130Z,97183.53
2022-11-06T09:32:02.397Z,97185.53
2022-11-06T09:36:02.622Z,97188.38
2022-11-06T09:40:06.356Z,97165.63
2022-11-06T09:44:32.737Z,97170.31
2022-11-06T09:48:42.423Z,97172.09
2022-11-06T09:52:52.103Z,97177.25
2022-11-06T09:57:02.633Z,97148.81
2022-11-06T10:01:19.600Z,97152.19
2022-11-06T10:05:31.193Z,97144.13
2022-11-06T10:09:32.545Z,97143.09
2022-11-06T10:13:58.037Z,97129.34
2022-11-06T10:18:12.595Z,97129.78
2022-11-06T10:22:20.744Z,97125.00
2022-11-06T10:26:27.612Z,97098.38
2022-11-06T10:30:45.207Z,97110.50
2022-11-06T10:34:49.926Z,97097.19
2022-11-06T10:38:55.298Z,97103.47
2022-11-06T10:43:08.131Z,97102.78
2022-11-06T10:47:17.166Z,97096.41
2022-11-06T10:51:54.193Z,97055.84
2022-11-06T10:56:26.205Z,97039.41
2022-11-06T11:00:26.861Z,97048.19
2022-11-06T11:04:27.008Z,97057.44
2022-11-06T11:08:43.112Z,97041.38
2022-11-06T11:12:49.131Z,97029.84
2022-11-06T11:16:50.738Z,97035.97
2022-11-06T11:20:52.817Z,97032.38
2022-11-06T11:25:27.410Z,97025.91
2022-11-06T11:29:34.480Z,97003.75
2022-11-06T11:33:35.503Z,96978.56
2022-11-06T11:37:37.062Z,97013.25
2022-11-06T11:41:37.187Z,96999.13
2022-11-06T11:45:39.981Z,96996.50
2022-11-06T11:49:40.104Z,96982.75
2022-11-06T11:53:41.875Z,96982.97
2022-11-06T11:57:49.854Z,96980.19
2022-11-06T12:01:53.109Z,96973.06
2022-11-06T12:05:54.915Z,96943.91
2022-11-06T12:09:55.320Z,96956.97
2022-11-06T12:14:21.736Z,96934.81
2022-11-06T12:18:30.731Z,96935.69
2022-11-06T12:22:40.364Z,96958.03
2022-11-06T12:26:48.898Z,96950.94
2022-11-06T12:31:03.357Z,96942.91
2022-11-06T12:35:18.544Z,96942.44
2022-11-06T12:39:30.515Z,96908.44
2022-11-06T12:43:40.357Z,96922.91
2022-11-06T12:47:54.978Z,96916.53
2022-11-06T12:52:17.900Z,96907.16
2022-11-06T12:56:27.787Z,96897.81
2022-11-06T13:00:35.968Z,96894.88
2022-11-06T13:04:53.365Z,96894.53
2022-11-06T13:09:07.753Z,96883.56
2022-11-06T13:13:38.637Z,96887.06
2022-11-06T13:17:47.835Z,96880.00
2022-11-06T13:22:24.282Z,96874.63
2022-11-06T13:26:35.919Z,96868.75
2022-11-06T13:30:39.947Z,96856.41
2022-11-06T13:34:45.050Z,96862.19
2022-11-06T13:38:52.652Z,96852.28
2022-11-06T13:43:04.118Z,96857.66
2022-11-06T13:47:15.245Z,96847.56
2022-11-06T13:51:27.324Z,96828.22
2022-11-06T13:55:51.839Z,96813.75
2022-11-06T14:00:18.875Z,96826.34
2022-11-06T14:04:58.218Z,96817.69
2022-11-06T14:09:04.745Z,96812.38
2022-11-06T14:13:08.756Z,96785.69
2022-11-06T14:17:27.303Z,96793.25
2022-11-06T14:21:47.721Z,96791.06
2022-11-06T14:26:01.994Z,96779.41
2022-11-06T14:30:05.576Z,96747.91
2022-11-06T14:34:31.709Z,96770.72
2022-11-06T14:38:42.762Z,96726.13
2022-11-06T14:42:46.897Z,96726.19
2022-11-06T14:46:54.324Z,96731.56
2022-11-06T14:50:57.312Z,96740.91
2022-11-06T14:55:05.724Z,96747.56
2022-11-06T14:59:11.580Z,96748.09
2022-11-06T15:03:27.527Z,96740.56
2022-11-06T15:08:10.646Z,96702.53
2022-11-06T15:12:11.694Z,96718.91
2022-11-06T15:16:15.981Z,96720.19
2022-11-06T15:20:29.546Z,96702.53
2022-11-06T15:24:40.206Z,96685.97
2022-11-06T15:28:49.469Z,96712.06
2022-11-06T15:32:53.262Z,96708.72
2022-11-06T15:36:59.846Z,96701.13
2022-11-06T15:41:02.598Z,96711.44
2022-11-06T15:45:12.884Z,96716.34
2022-11-06T15:49:23.045Z,96703.94
2022-11-06T15:53:26.344Z,96705.41
2022-11-06T15:57:32.206Z,96711.44
2022-11-06T16:01:36.349Z,96715.34
2022-11-06T16:05:40.718Z,96716.56
2022-11-06T16:09:45.250Z,96712.31
2022-11-06T16:13:49.520Z,96723.84
2022-11-06T16:17:49.658Z,96709.59
2022-11-06T16:21:58.843Z,96686.22
2022-11-06T16:26:07.219Z,96697.13
2022-11-06T16:30:25.675Z,96680.75
2022-11-06T16:34:44.143Z,96674.06
2022-11-06T16:38:47.221Z,96690.56
2022-11-06T16:43:05.469Z,96685.75
2022-11-06T16:47:21.656Z,96686.72
2022-11-06T16:51:35.753Z,96697.97
2022-11-06T16:55:35.922Z,96702.31
2022-11-06T16:59:36.060Z,96703.22
2022-11-06T17:03:48.733Z,96698.72
2022-11-06T17:07:49.466Z,96704.03
2022-11-06T17:11:49.555Z,96702.34
2022-11-06T17:15:54.864Z,96681.94
2022-11-06T17:19:57.592Z,96703.06
2022-11-06T17:24:07.696Z,96705.19
2022-11-06T17:28:18.987Z,96702.22
2022-11-06T17:32:18.987Z,96683.00
2022-11-06T17:36:25.770Z,96690.97
2022-11-06T17:40:25.891Z,96683.00
2022-11-06T17:44:25.974Z,96706.47
2022-11-06T17:48:26.070Z,96709.50
2022-11-06T17:52:28.715Z,96692.63
2022-11-06T17:56:32.813Z,96687.81
2022-11-06T18:00:35.322Z,96670.06
2022-11-06T18:04:35.978Z,96649.88
2022-11-06T18:08:38.957Z,96666.22
2022-11-06T18:12:39.052Z,96685.66
2022-11-06T18:16:43.988Z,96685.03
2022-11-06T18:20:47.871Z,96693.25
2022-11-06T18:24:50.581Z,96710.78
2022-11-06T18:28:50.852Z,96719.09
2022-11-06T18:32:51.044Z,96657.50
2022-11-06T18:36:52.107Z,96699.69
2022-11-06T18:40:54.823Z,96697.09
2022-11-06T18:44:54.886Z,96701.94
2022-11-06T18:48:55.475Z,96704.16
2022-11-06T18:52:58.171Z,96703.03
2022-11-06T18:57:01.439Z,96700.00
2022-11-06T19:01:02.167Z,96705.09
2022-11-06T19:05:02.908Z,96702.66
2022-11-06T19:09:03.080Z,96707.56
2022-11-06T19:13:05.738Z,96687.28
2022-11-06T19:17:05.892Z,96697.03
2022-11-06T19:21:09.102Z,96698.41
2022-11-06T19:25:10.642Z,96690.88
2022-11-06T19:29:13.405Z,96700.84
2022-11-06T19:33:13.793Z,96718.56
2022-11-06T19:37:14.214Z,96696.63
2022-11-06T19:41:14.385Z,96672.50
2022-11-06T19:45:17.158Z,96702.44
2022-11-06T19:49:17.330Z,96679.56
2022-11-06T19:53:22.295Z,96693.16
2022-11-06T19:57:29.559Z,96703.22
2022-11-06T20:01:34.603Z,96695.69
2022-11-06T20:05:34.883Z,96691.31
2022-11-06T20:09:35.091Z,96695.53
2022-11-06T20:13:36.636Z,96725.59
2022-11-06T20:17:39.530Z,96742.72
2022-11-06T20:21:39.590Z,96743.44
2022-11-06T20:25:39.736Z,96733.34
2022-11-06T20:29:39.845Z,96724.81
2022-11-06T20:33:43.028Z,96717.91
2022-11-06T20:37:43.162Z,96713.84
2022-11-06T20:41:43.253Z,96722.78
2022-11-06T20:45:43.506Z,96732.13
2022-11-06T20:49:46.577Z,96653.72
2022-11-06T20:53:47.493Z,96734.97
2022-11-06T20:57:47.585Z,96729.28
2022-11-06T21:01:48.197Z,96716.88
2022-11-06T21:05:51.066Z,96708.75
2022-11-06T21:09:51.260Z,96699.59
2022-11-06T21:13:55.484Z,96729.13
2022-11-06T21:17:58.877Z,96679.00
2022-11-06T21:22:05.383Z,96691.16
2022-11-06T21:26:12.333Z,96721.25
2022-11-06T21:30:14.615Z,96714.94
2022-11-06T21:34:14.808Z,96727.88
2022-11-06T21:38:17.672Z,96724.03
2022-11-06T21:42:17.787Z,96739.66
2022-11-06T21:46:20.176Z,96718.53
2022-11-06T21:50:29.576Z,96741.03
2022-11-06T21:54:45.285Z,96735.44
2022-11-06T21:58:45.420Z,96762.25
2022-11-06T22:02:45.790Z,96759.31
2022-11-06T22:06:46.711Z,96754.81
2022-11-06T22:10:49.357Z,96757.38
2022-11-06T22:14:49.503Z,96765.94
2022-11-06T22:18:49.762Z,96776.09
2022-11-06T22:22:50.063Z,96776.22
2022-11-06T22:26:52.708Z,96791.66
2022-11-06T22:30:52.822Z,96782.81
2022-11-06T22:34:52.875Z,96776.75
2022-11-06T22:38:53.494Z,96769.66
2022-11-06T22:42:57.626Z,96757.81
2022-11-06T22:47:02.443Z,96771.19
2022-11-06T22:51:08.997Z,96758.09
2022-11-06T22:55:10.294Z,96786.25
2022-11-06T22:59:16.234Z,96785.44
2022-11-06T23:03:18.311Z,96786.00
2022-11-06T23:07:20.731Z,96793.88
2022-11-06T23:11:23.124Z,96783.41
2022-11-06T23:15:28.189Z,96780.00
2022-11-06T23:19:36.128Z,96780.59
2022-11-06T23:23:37.967Z,96790.25
2022-11-06T23:27:49.446Z,96784.47
2022-11-06T23:31:54.388Z,96783.91
2022-11-06T23:35:56.694Z,96779.69
2022-11-06T23:39:59.077Z,96760.97
2022-11-06T23:44:01.517Z,96783.97
2022-11-06T23:48:08.587Z,96794.56
2022-11-06T23:52:10.672Z,96789.47
2022-11-06T23:56:13.998Z,96792.78
